sensor_id;sensor_type;location;lat;lon;timestamp;P1;durP1;ratioP1;P2;durP2;ratioP2
58990;SDS011;44781;53.444;14.476;2023-03-08T00:01:13;7.00;;;1.30;;
58990;SDS011;44781;53.444;14.476;2023-03-08T00:03:42;4.60;;;1.20;;
58990;SDS011;44781;53.444;14.476;2023-03-08T00:06:11;6.40;;;2.00;;
58990;SDS011;44781;53.444;14.476;2023-03-08T00:08:40;6.00;;;1.60;;
58990;SDS011;44781;53.444;14.476;2023-03-08T00:11:08;6.50;;;1.20;;
58990;SDS011;44781;53.444;14.476;2023-03-08T00:13:37;4.70;;;1.10;;
58990;SDS011;44781;53.444;14.476;2023-03-08T00:16:09;6.20;;;1.40;;
58990;SDS011;44781;53.444;14.476;2023-03-08T00:18:42;4.60;;;1.10;;
58990;SDS011;44781;53.444;14.476;2023-03-08T00:21:10;5.10;;;1.00;;
58990;SDS011;44781;53.444;14.476;2023-03-08T00:23:42;5.90;;;1.30;;
58990;SDS011;44781;53.444;14.476;2023-03-08T00:26:10;6.80;;;1.60;;
58990;SDS011;44781;53.444;14.476;2023-03-08T00:28:38;3.80;;;1.10;;
58990;SDS011;44781;53.444;14.476;2023-03-08T00:31:07;5.30;;;1.40;;
58990;SDS011;44781;53.444;14.476;2023-03-08T00:33:37;7.30;;;1.70;;
58990;SDS011;44781;53.444;14.476;2023-03-08T00:38:37;5.90;;;2.60;;
58990;SDS011;44781;53.444;14.476;2023-03-08T00:41:04;5.80;;;1.90;;
58990;SDS011;44781;53.444;14.476;2023-03-08T00:43:32;5.50;;;2.40;;
58990;SDS011;44781;53.444;14.476;2023-03-08T00:46:06;5.90;;;1.80;;
58990;SDS011;44781;53.444;14.476;2023-03-08T00:48:34;5.20;;;1.60;;
58990;SDS011;44781;53.444;14.476;2023-03-08T00:51:01;4.00;;;1.30;;
58990;SDS011;44781;53.444;14.476;2023-03-08T00:53:29;4.20;;;1.60;;
58990;SDS011;44781;53.444;14.476;2023-03-08T00:55:57;3.90;;;1.30;;
58990;SDS011;44781;53.444;14.476;2023-03-08T00:58:28;4.40;;;1.60;;
58990;SDS011;44781;53.444;14.476;2023-03-08T01:00:57;5.90;;;1.60;;
58990;SDS011;44781;53.444;14.476;2023-03-08T01:03:24;4.90;;;1.10;;
58990;SDS011;44781;53.444;14.476;2023-03-08T01:05:53;5.70;;;1.30;;
58990;SDS011;44781;53.444;14.476;2023-03-08T01:08:22;3.80;;;1.30;;
58990;SDS011;44781;53.444;14.476;2023-03-08T01:10:52;6.30;;;1.40;;
58990;SDS011;44781;53.444;14.476;2023-03-08T01:13:24;5.00;;;1.30;;
58990;SDS011;44781;53.444;14.476;2023-03-08T01:15:52;6.00;;;1.80;;
58990;SDS011;44781;53.444;14.476;2023-03-08T01:18:19;4.60;;;1.40;;
58990;SDS011;44781;53.444;14.476;2023-03-08T01:20:58;7.10;;;2.30;;
58990;SDS011;44781;53.444;14.476;2023-03-08T01:23:30;5.20;;;1.90;;
58990;SDS011;44781;53.444;14.476;2023-03-08T01:26:05;3.90;;;1.60;;
58990;SDS011;44781;53.444;14.476;2023-03-08T01:28:34;4.80;;;1.50;;
58990;SDS011;44781;53.444;14.476;2023-03-08T01:31:03;5.00;;;1.20;;
58990;SDS011;44781;53.444;14.476;2023-03-08T01:33:33;7.70;;;1.70;;
58990;SDS011;44781;53.444;14.476;2023-03-08T01:36:03;6.60;;;1.30;;
58990;SDS011;44781;53.444;14.476;2023-03-08T01:38:31;8.00;;;1.60;;
58990;SDS011;44781;53.444;14.476;2023-03-08T01:40:59;5.60;;;1.90;;
58990;SDS011;44781;53.444;14.476;2023-03-08T01:43:30;5.20;;;2.00;;
58990;SDS011;44781;53.444;14.476;2023-03-08T01:46:16;6.00;;;1.70;;
58990;SDS011;44781;53.444;14.476;2023-03-08T01:54:30;5.10;;;2.00;;
58990;SDS011;44781;53.444;14.476;2023-03-08T01:57:02;4.80;;;1.70;;
58990;SDS011;44781;53.444;14.476;2023-03-08T01:59:33;4.20;;;1.50;;
58990;SDS011;44781;53.444;14.476;2023-03-08T02:02:01;4.90;;;1.50;;
58990;SDS011;44781;53.444;14.476;2023-03-08T02:04:30;6.40;;;1.40;;
58990;SDS011;44781;53.444;14.476;2023-03-08T02:07:00;4.90;;;1.40;;
58990;SDS011;44781;53.444;14.476;2023-03-08T02:09:28;7.20;;;2.50;;
58990;SDS011;44781;53.444;14.476;2023-03-08T02:11:56;4.10;;;1.40;;
58990;SDS011;44781;53.444;14.476;2023-03-08T02:14:27;6.70;;;1.40;;
58990;SDS011;44781;53.444;14.476;2023-03-08T02:16:58;4.50;;;1.10;;
58990;SDS011;44781;53.444;14.476;2023-03-08T02:19:31;4.30;;;1.40;;
58990;SDS011;44781;53.444;14.476;2023-03-08T02:22:09;8.30;;;1.50;;
58990;SDS011;44781;53.444;14.476;2023-03-08T02:24:38;4.30;;;1.10;;
58990;SDS011;44781;53.444;14.476;2023-03-08T02:27:08;4.10;;;1.00;;
58990;SDS011;44781;53.444;14.476;2023-03-08T02:29:40;4.20;;;1.40;;
58990;SDS011;44781;53.444;14.476;2023-03-08T02:32:07;6.70;;;1.40;;
58990;SDS011;44781;53.444;14.476;2023-03-08T02:34:36;4.30;;;1.10;;
58990;SDS011;44781;53.444;14.476;2023-03-08T02:37:03;3.00;;;1.50;;
58990;SDS011;44781;53.444;14.476;2023-03-08T02:39:30;5.10;;;1.80;;
58990;SDS011;44781;53.444;14.476;2023-03-08T02:41:57;3.50;;;1.40;;
58990;SDS011;44781;53.444;14.476;2023-03-08T02:44:24;2.40;;;1.30;;
58990;SDS011;44781;53.444;14.476;2023-03-08T02:46:52;3.60;;;1.80;;
58990;SDS011;44781;53.444;14.476;2023-03-08T02:49:19;5.80;;;1.70;;
58990;SDS011;44781;53.444;14.476;2023-03-08T02:51:48;2.70;;;1.20;;
58990;SDS011;44781;53.444;14.476;2023-03-08T02:54:15;5.30;;;1.30;;
58990;SDS011;44781;53.444;14.476;2023-03-08T02:56:42;5.20;;;2.00;;
58990;SDS011;44781;53.444;14.476;2023-03-08T02:59:12;4.10;;;1.40;;
58990;SDS011;44781;53.444;14.476;2023-03-08T03:01:39;8.10;;;1.80;;
58990;SDS011;44781;53.444;14.476;2023-03-08T03:04:06;4.30;;;1.50;;
58990;SDS011;44781;53.444;14.476;2023-03-08T03:06:34;2.80;;;1.30;;
58990;SDS011;44781;53.444;14.476;2023-03-08T03:09:08;5.50;;;1.30;;
58990;SDS011;44781;53.444;14.476;2023-03-08T03:14:05;5.10;;;2.10;;
58990;SDS011;44781;53.444;14.476;2023-03-08T03:16:37;5.90;;;1.50;;
58990;SDS011;44781;53.444;14.476;2023-03-08T03:19:04;4.60;;;1.40;;
58990;SDS011;44781;53.444;14.476;2023-03-08T03:21:32;3.30;;;1.40;;
58990;SDS011;44781;53.444;14.476;2023-03-08T03:24:00;4.00;;;1.30;;
58990;SDS011;44781;53.444;14.476;2023-03-08T03:26:34;5.40;;;1.80;;
58990;SDS011;44781;53.444;14.476;2023-03-08T03:29:02;6.70;;;1.40;;
58990;SDS011;44781;53.444;14.476;2023-03-08T03:31:32;5.50;;;1.10;;
58990;SDS011;44781;53.444;14.476;2023-03-08T03:34:00;3.70;;;1.50;;
58990;SDS011;44781;53.444;14.476;2023-03-08T03:36:28;6.10;;;1.80;;
58990;SDS011;44781;53.444;14.476;2023-03-08T03:38:57;3.00;;;1.30;;
58990;SDS011;44781;53.444;14.476;2023-03-08T03:41:25;5.90;;;1.50;;
58990;SDS011;44781;53.444;14.476;2023-03-08T03:44:00;4.50;;;1.40;;
58990;SDS011;44781;53.444;14.476;2023-03-08T03:46:28;6.30;;;2.20;;
58990;SDS011;44781;53.444;14.476;2023-03-08T03:48:57;5.20;;;1.90;;
58990;SDS011;44781;53.444;14.476;2023-03-08T03:51:26;5.40;;;1.30;;
58990;SDS011;44781;53.444;14.476;2023-03-08T03:54:05;5.30;;;1.50;;
58990;SDS011;44781;53.444;14.476;2023-03-08T03:56:33;2.90;;;1.50;;
58990;SDS011;44781;53.444;14.476;2023-03-08T03:59:00;7.80;;;1.70;;
58990;SDS011;44781;53.444;14.476;2023-03-08T04:01:29;4.00;;;1.60;;
58990;SDS011;44781;53.444;14.476;2023-03-08T04:04:10;6.50;;;1.60;;
58990;SDS011;44781;53.444;14.476;2023-03-08T04:06:39;7.10;;;2.10;;
58990;SDS011;44781;53.444;14.476;2023-03-08T04:09:09;7.10;;;2.20;;
58990;SDS011;44781;53.444;14.476;2023-03-08T04:11:40;11.30;;;2.70;;
58990;SDS011;44781;53.444;14.476;2023-03-08T04:14:10;8.00;;;2.40;;
58990;SDS011;44781;53.444;14.476;2023-03-08T04:16:38;8.30;;;2.50;;
58990;SDS011;44781;53.444;14.476;2023-03-08T04:19:14;8.70;;;2.50;;
58990;SDS011;44781;53.444;14.476;2023-03-08T04:21:48;9.00;;;2.70;;
58990;SDS011;44781;53.444;14.476;2023-03-08T04:24:18;8.20;;;2.70;;
58990;SDS011;44781;53.444;14.476;2023-03-08T04:26:48;7.10;;;2.80;;
58990;SDS011;44781;53.444;14.476;2023-03-08T04:29:18;7.10;;;2.60;;
58990;SDS011;44781;53.444;14.476;2023-03-08T04:31:45;4.90;;;1.90;;
58990;SDS011;44781;53.444;14.476;2023-03-08T04:34:14;7.60;;;2.20;;
58990;SDS011;44781;53.444;14.476;2023-03-08T04:36:43;8.80;;;2.50;;
58990;SDS011;44781;53.444;14.476;2023-03-08T04:39:10;6.40;;;3.10;;
58990;SDS011;44781;53.444;14.476;2023-03-08T04:41:38;7.10;;;2.40;;
58990;SDS011;44781;53.444;14.476;2023-03-08T04:44:21;7.70;;;2.70;;
58990;SDS011;44781;53.444;14.476;2023-03-08T04:46:51;11.50;;;3.80;;
58990;SDS011;44781;53.444;14.476;2023-03-08T04:49:24;14.00;;;6.00;;
58990;SDS011;44781;53.444;14.476;2023-03-08T04:51:55;11.60;;;6.00;;
58990;SDS011;44781;53.444;14.476;2023-03-08T04:54:22;9.30;;;4.40;;
58990;SDS011;44781;53.444;14.476;2023-03-08T04:56:56;11.30;;;3.30;;
58990;SDS011;44781;53.444;14.476;2023-03-08T04:59:25;11.20;;;3.50;;
58990;SDS011;44781;53.444;14.476;2023-03-08T05:01:54;9.20;;;2.60;;
58990;SDS011;44781;53.444;14.476;2023-03-08T05:04:22;9.00;;;2.90;;
58990;SDS011;44781;53.444;14.476;2023-03-08T05:06:49;7.00;;;2.60;;
58990;SDS011;44781;53.444;14.476;2023-03-08T05:09:20;7.60;;;2.80;;
58990;SDS011;44781;53.444;14.476;2023-03-08T05:11:49;9.10;;;2.60;;
58990;SDS011;44781;53.444;14.476;2023-03-08T05:14:16;7.20;;;2.70;;
58990;SDS011;44781;53.444;14.476;2023-03-08T05:16:44;6.00;;;2.40;;
58990;SDS011;44781;53.444;14.476;2023-03-08T05:19:12;7.00;;;2.80;;
58990;SDS011;44781;53.444;14.476;2023-03-08T05:21:45;6.20;;;2.80;;
58990;SDS011;44781;53.444;14.476;2023-03-08T05:24:13;11.40;;;4.80;;
58990;SDS011;44781;53.444;14.476;2023-03-08T05:26:40;9.30;;;4.20;;
58990;SDS011;44781;53.444;14.476;2023-03-08T05:29:10;11.30;;;5.00;;
58990;SDS011;44781;53.444;14.476;2023-03-08T05:31:37;11.80;;;4.90;;
58990;SDS011;44781;53.444;14.476;2023-03-08T05:34:08;12.20;;;6.80;;
58990;SDS011;44781;53.444;14.476;2023-03-08T05:36:36;10.80;;;5.70;;
58990;SDS011;44781;53.444;14.476;2023-03-08T05:39:05;11.50;;;4.60;;
58990;SDS011;44781;53.444;14.476;2023-03-08T05:41:49;8.00;;;4.60;;
58990;SDS011;44781;53.444;14.476;2023-03-08T05:44:21;8.80;;;4.80;;
58990;SDS011;44781;53.444;14.476;2023-03-08T05:46:49;10.90;;;5.80;;
58990;SDS011;44781;53.444;14.476;2023-03-08T05:49:17;10.10;;;5.80;;
58990;SDS011;44781;53.444;14.476;2023-03-08T05:51:46;9.20;;;5.10;;
58990;SDS011;44781;53.444;14.476;2023-03-08T05:54:14;8.90;;;5.10;;
58990;SDS011;44781;53.444;14.476;2023-03-08T05:56:41;10.20;;;5.80;;
58990;SDS011;44781;53.444;14.476;2023-03-08T05:59:16;10.00;;;4.90;;
58990;SDS011;44781;53.444;14.476;2023-03-08T06:01:43;9.10;;;5.20;;
58990;SDS011;44781;53.444;14.476;2023-03-08T06:04:23;10.40;;;4.60;;
58990;SDS011;44781;53.444;14.476;2023-03-08T06:06:51;10.10;;;4.90;;
58990;SDS011;44781;53.444;14.476;2023-03-08T06:09:19;10.10;;;5.70;;
58990;SDS011;44781;53.444;14.476;2023-03-08T06:11:47;9.30;;;5.00;;
58990;SDS011;44781;53.444;14.476;2023-03-08T06:14:14;11.70;;;6.30;;
58990;SDS011;44781;53.444;14.476;2023-03-08T06:16:44;10.00;;;6.10;;
58990;SDS011;44781;53.444;14.476;2023-03-08T06:19:15;11.50;;;5.90;;
58990;SDS011;44781;53.444;14.476;2023-03-08T06:21:53;11.10;;;5.80;;
58990;SDS011;44781;53.444;14.476;2023-03-08T06:24:21;12.70;;;6.10;;
58990;SDS011;44781;53.444;14.476;2023-03-08T06:26:49;8.50;;;4.70;;
58990;SDS011;44781;53.444;14.476;2023-03-08T06:29:18;7.70;;;5.70;;
58990;SDS011;44781;53.444;14.476;2023-03-08T06:31:45;8.80;;;4.40;;
58990;SDS011;44781;53.444;14.476;2023-03-08T06:34:20;9.70;;;4.70;;
58990;SDS011;44781;53.444;14.476;2023-03-08T06:36:50;7.60;;;5.00;;
58990;SDS011;44781;53.444;14.476;2023-03-08T06:39:18;9.30;;;5.00;;
58990;SDS011;44781;53.444;14.476;2023-03-08T06:41:46;10.90;;;5.20;;
58990;SDS011;44781;53.444;14.476;2023-03-08T06:44:16;8.80;;;5.20;;
58990;SDS011;44781;53.444;14.476;2023-03-08T06:46:44;10.90;;;5.50;;
58990;SDS011;44781;53.444;14.476;2023-03-08T06:49:11;8.00;;;4.70;;
58990;SDS011;44781;53.444;14.476;2023-03-08T06:51:39;9.40;;;4.60;;
58990;SDS011;44781;53.444;14.476;2023-03-08T06:54:06;9.00;;;4.20;;
58990;SDS011;44781;53.444;14.476;2023-03-08T06:56:33;10.40;;;4.80;;
58990;SDS011;44781;53.444;14.476;2023-03-08T06:59:00;8.20;;;4.40;;
58990;SDS011;44781;53.444;14.476;2023-03-08T07:01:28;8.00;;;4.70;;
58990;SDS011;44781;53.444;14.476;2023-03-08T07:03:55;10.00;;;5.70;;
58990;SDS011;44781;53.444;14.476;2023-03-08T07:06:22;9.60;;;6.10;;
58990;SDS011;44781;53.444;14.476;2023-03-08T07:08:51;10.40;;;5.50;;
58990;SDS011;44781;53.444;14.476;2023-03-08T07:11:19;9.60;;;5.80;;
58990;SDS011;44781;53.444;14.476;2023-03-08T07:13:46;9.90;;;5.20;;
58990;SDS011;44781;53.444;14.476;2023-03-08T07:16:14;9.70;;;4.90;;
58990;SDS011;44781;53.444;14.476;2023-03-08T07:18:41;10.20;;;5.60;;
58990;SDS011;44781;53.444;14.476;2023-03-08T07:21:08;11.70;;;6.10;;
58990;SDS011;44781;53.444;14.476;2023-03-08T07:23:36;8.80;;;5.30;;
58990;SDS011;44781;53.444;14.476;2023-03-08T07:26:04;14.30;;;7.50;;
58990;SDS011;44781;53.444;14.476;2023-03-08T07:28:35;15.70;;;8.40;;
58990;SDS011;44781;53.444;14.476;2023-03-08T07:31:03;10.10;;;6.00;;
58990;SDS011;44781;53.444;14.476;2023-03-08T07:33:30;11.40;;;6.20;;
58990;SDS011;44781;53.444;14.476;2023-03-08T07:35:58;9.50;;;5.90;;
58990;SDS011;44781;53.444;14.476;2023-03-08T07:38:27;10.30;;;5.70;;
58990;SDS011;44781;53.444;14.476;2023-03-08T07:40:55;7.90;;;4.70;;
58990;SDS011;44781;53.444;14.476;2023-03-08T07:43:23;7.60;;;4.30;;
58990;SDS011;44781;53.444;14.476;2023-03-08T07:45:58;8.10;;;4.20;;
58990;SDS011;44781;53.444;14.476;2023-03-08T07:48:28;7.40;;;4.00;;
58990;SDS011;44781;53.444;14.476;2023-03-08T07:51:00;7.80;;;4.70;;
58990;SDS011;44781;53.444;14.476;2023-03-08T07:53:29;8.80;;;4.90;;
58990;SDS011;44781;53.444;14.476;2023-03-08T07:55:57;7.20;;;4.20;;
58990;SDS011;44781;53.444;14.476;2023-03-08T07:58:25;9.60;;;4.80;;
58990;SDS011;44781;53.444;14.476;2023-03-08T08:00:53;9.20;;;4.90;;
58990;SDS011;44781;53.444;14.476;2023-03-08T08:03:24;11.40;;;4.70;;
58990;SDS011;44781;53.444;14.476;2023-03-08T08:05:51;8.50;;;5.10;;
58990;SDS011;44781;53.444;14.476;2023-03-08T08:08:20;10.10;;;5.30;;
58990;SDS011;44781;53.444;14.476;2023-03-08T08:10:47;8.40;;;4.50;;
58990;SDS011;44781;53.444;14.476;2023-03-08T08:13:14;8.80;;;4.80;;
58990;SDS011;44781;53.444;14.476;2023-03-08T08:15:42;10.50;;;6.40;;
58990;SDS011;44781;53.444;14.476;2023-03-08T08:18:09;9.30;;;5.20;;
58990;SDS011;44781;53.444;14.476;2023-03-08T08:20:36;6.90;;;4.10;;
58990;SDS011;44781;53.444;14.476;2023-03-08T08:23:05;8.10;;;4.50;;
58990;SDS011;44781;53.444;14.476;2023-03-08T08:25:32;7.10;;;3.90;;
58990;SDS011;44781;53.444;14.476;2023-03-08T08:27:59;7.90;;;3.70;;
58990;SDS011;44781;53.444;14.476;2023-03-08T08:30:27;6.90;;;3.10;;
58990;SDS011;44781;53.444;14.476;2023-03-08T08:32:54;7.20;;;3.60;;
58990;SDS011;44781;53.444;14.476;2023-03-08T08:35:22;7.30;;;3.90;;
58990;SDS011;44781;53.444;14.476;2023-03-08T08:37:50;9.70;;;4.50;;
58990;SDS011;44781;53.444;14.476;2023-03-08T08:40:17;8.30;;;4.20;;
58990;SDS011;44781;53.444;14.476;2023-03-08T08:42:45;5.80;;;3.10;;
58990;SDS011;44781;53.444;14.476;2023-03-08T08:45:12;8.20;;;3.90;;
58990;SDS011;44781;53.444;14.476;2023-03-08T08:47:40;9.30;;;3.80;;
58990;SDS011;44781;53.444;14.476;2023-03-08T08:50:07;6.90;;;3.40;;
58990;SDS011;44781;53.444;14.476;2023-03-08T08:52:35;7.00;;;3.50;;
58990;SDS011;44781;53.444;14.476;2023-03-08T08:55:02;6.80;;;3.40;;
58990;SDS011;44781;53.444;14.476;2023-03-08T08:57:30;7.30;;;3.20;;
58990;SDS011;44781;53.444;14.476;2023-03-08T08:59:58;7.80;;;3.70;;
58990;SDS011;44781;53.444;14.476;2023-03-08T09:02:25;5.80;;;3.20;;
58990;SDS011;44781;53.444;14.476;2023-03-08T09:04:53;5.80;;;3.20;;
58990;SDS011;44781;53.444;14.476;2023-03-08T09:07:21;8.70;;;4.30;;
58990;SDS011;44781;53.444;14.476;2023-03-08T09:09:48;7.10;;;3.50;;
58990;SDS011;44781;53.444;14.476;2023-03-08T09:12:16;6.20;;;3.40;;
58990;SDS011;44781;53.444;14.476;2023-03-08T09:14:43;6.50;;;4.00;;
58990;SDS011;44781;53.444;14.476;2023-03-08T09:17:11;6.90;;;3.20;;
58990;SDS011;44781;53.444;14.476;2023-03-08T09:19:41;7.10;;;3.00;;
58990;SDS011;44781;53.444;14.476;2023-03-08T09:22:14;6.00;;;2.80;;
58990;SDS011;44781;53.444;14.476;2023-03-08T09:24:48;5.70;;;2.80;;
58990;SDS011;44781;53.444;14.476;2023-03-08T09:27:16;6.80;;;3.00;;
58990;SDS011;44781;53.444;14.476;2023-03-08T09:29:43;6.90;;;3.30;;
58990;SDS011;44781;53.444;14.476;2023-03-08T09:32:10;6.00;;;2.90;;
58990;SDS011;44781;53.444;14.476;2023-03-08T09:34:38;7.10;;;2.80;;
58990;SDS011;44781;53.444;14.476;2023-03-08T09:37:05;6.50;;;3.40;;
58990;SDS011;44781;53.444;14.476;2023-03-08T09:39:33;7.40;;;3.60;;
58990;SDS011;44781;53.444;14.476;2023-03-08T09:42:01;6.50;;;3.10;;
58990;SDS011;44781;53.444;14.476;2023-03-08T09:44:43;6.30;;;2.60;;
58990;SDS011;44781;53.444;14.476;2023-03-08T09:50:50;9.30;;;3.00;;
58990;SDS011;44781;53.444;14.476;2023-03-08T09:58:54;7.40;;;3.20;;
58990;SDS011;44781;53.444;14.476;2023-03-08T10:04:26;5.90;;;2.60;;
58990;SDS011;44781;53.444;14.476;2023-03-08T10:11:01;7.60;;;3.50;;
58990;SDS011;44781;53.444;14.476;2023-03-08T10:18:52;8.70;;;3.40;;
58990;SDS011;44781;53.444;14.476;2023-03-08T10:21:24;7.60;;;2.90;;
58990;SDS011;44781;53.444;14.476;2023-03-08T10:26:33;6.10;;;2.80;;
58990;SDS011;44781;53.444;14.476;2023-03-08T10:29:00;5.30;;;2.50;;
58990;SDS011;44781;53.444;14.476;2023-03-08T10:31:29;4.70;;;2.50;;
58990;SDS011;44781;53.444;14.476;2023-03-08T10:39:19;5.70;;;2.60;;
58990;SDS011;44781;53.444;14.476;2023-03-08T10:41:52;6.20;;;2.50;;
58990;SDS011;44781;53.444;14.476;2023-03-08T10:44:46;7.20;;;3.10;;
58990;SDS011;44781;53.444;14.476;2023-03-08T10:53:06;6.60;;;2.60;;
58990;SDS011;44781;53.444;14.476;2023-03-08T10:55:46;6.00;;;2.70;;
58990;SDS011;44781;53.444;14.476;2023-03-08T10:58:34;6.90;;;2.60;;
58990;SDS011;44781;53.444;14.476;2023-03-08T11:04:05;5.50;;;2.30;;
58990;SDS011;44781;53.444;14.476;2023-03-08T11:06:40;9.00;;;5.30;;
58990;SDS011;44781;53.444;14.476;2023-03-08T11:12:04;6.40;;;2.80;;
58990;SDS011;44781;53.444;14.476;2023-03-08T11:14:32;5.60;;;2.80;;
58990;SDS011;44781;53.444;14.476;2023-03-08T11:17:33;8.80;;;4.20;;
58990;SDS011;44781;53.444;14.476;2023-03-08T11:50:21;7.70;;;3.00;;
58990;SDS011;44781;53.444;14.476;2023-03-08T12:01:48;5.80;;;2.80;;
58990;SDS011;44781;53.444;14.476;2023-03-08T12:04:24;5.20;;;2.50;;
58990;SDS011;44781;53.444;14.476;2023-03-08T12:07:00;5.60;;;2.80;;
58990;SDS011;44781;53.444;14.476;2023-03-08T12:09:33;6.70;;;2.50;;
58990;SDS011;44781;53.444;14.476;2023-03-08T12:12:17;7.90;;;3.20;;
58990;SDS011;44781;53.444;14.476;2023-03-08T12:17:30;4.10;;;2.50;;
58990;SDS011;44781;53.444;14.476;2023-03-08T12:20:04;6.50;;;2.70;;
58990;SDS011;44781;53.444;14.476;2023-03-08T12:22:56;4.70;;;2.60;;
58990;SDS011;44781;53.444;14.476;2023-03-08T12:25:40;6.10;;;2.90;;
58990;SDS011;44781;53.444;14.476;2023-03-08T12:28:14;6.60;;;3.10;;
58990;SDS011;44781;53.444;14.476;2023-03-08T12:33:51;6.20;;;2.40;;
58990;SDS011;44781;53.444;14.476;2023-03-08T12:36:19;5.50;;;2.50;;
58990;SDS011;44781;53.444;14.476;2023-03-08T12:38:50;7.80;;;3.10;;
58990;SDS011;44781;53.444;14.476;2023-03-08T12:41:23;6.50;;;2.70;;
58990;SDS011;44781;53.444;14.476;2023-03-08T12:51:54;5.90;;;2.50;;
58990;SDS011;44781;53.444;14.476;2023-03-08T13:06:01;4.60;;;2.40;;
58990;SDS011;44781;53.444;14.476;2023-03-08T13:10:19;6.00;;;2.70;;
58990;SDS011;44781;53.444;14.476;2023-03-08T13:16:03;4.70;;;2.00;;
58990;SDS011;44781;53.444;14.476;2023-03-08T13:18:33;6.00;;;2.90;;
58990;SDS011;44781;53.444;14.476;2023-03-08T13:21:06;4.50;;;2.30;;
58990;SDS011;44781;53.444;14.476;2023-03-08T13:23:47;8.30;;;2.70;;
58990;SDS011;44781;53.444;14.476;2023-03-08T13:26:26;8.80;;;3.00;;
58990;SDS011;44781;53.444;14.476;2023-03-08T13:29:18;5.80;;;2.70;;
58990;SDS011;44781;53.444;14.476;2023-03-08T13:31:47;6.60;;;2.70;;
58990;SDS011;44781;53.444;14.476;2023-03-08T13:34:33;8.00;;;3.30;;
58990;SDS011;44781;53.444;14.476;2023-03-08T13:37:01;7.20;;;3.40;;
58990;SDS011;44781;53.444;14.476;2023-03-08T13:39:30;6.10;;;3.10;;
58990;SDS011;44781;53.444;14.476;2023-03-08T13:42:10;4.80;;;2.40;;
58990;SDS011;44781;53.444;14.476;2023-03-08T13:44:38;3.20;;;2.10;;
58990;SDS011;44781;53.444;14.476;2023-03-08T13:47:22;6.80;;;2.70;;
58990;SDS011;44781;53.444;14.476;2023-03-08T13:49:53;7.50;;;2.90;;
58990;SDS011;44781;53.444;14.476;2023-03-08T13:52:23;5.70;;;2.90;;
58990;SDS011;44781;53.444;14.476;2023-03-08T13:55:04;5.50;;;2.70;;
58990;SDS011;44781;53.444;14.476;2023-03-08T13:57:35;5.00;;;2.50;;
58990;SDS011;44781;53.444;14.476;2023-03-08T14:02:52;4.30;;;2.00;;
58990;SDS011;44781;53.444;14.476;2023-03-08T14:05:25;6.70;;;2.70;;
58990;SDS011;44781;53.444;14.476;2023-03-08T14:07:55;6.20;;;2.50;;
58990;SDS011;44781;53.444;14.476;2023-03-08T14:10:40;3.90;;;2.20;;
58990;SDS011;44781;53.444;14.476;2023-03-08T14:13:15;6.20;;;3.00;;
58990;SDS011;44781;53.444;14.476;2023-03-08T14:15:57;6.60;;;2.90;;
58990;SDS011;44781;53.444;14.476;2023-03-08T14:18:36;6.50;;;2.80;;
58990;SDS011;44781;53.444;14.476;2023-03-08T14:21:15;5.60;;;2.60;;
58990;SDS011;44781;53.444;14.476;2023-03-08T14:26:23;4.60;;;2.40;;
58990;SDS011;44781;53.444;14.476;2023-03-08T14:29:05;6.10;;;2.50;;
58990;SDS011;44781;53.444;14.476;2023-03-08T14:31:35;5.70;;;2.60;;
58990;SDS011;44781;53.444;14.476;2023-03-08T14:34:16;5.80;;;2.70;;
58990;SDS011;44781;53.444;14.476;2023-03-08T14:36:53;6.20;;;2.70;;
58990;SDS011;44781;53.444;14.476;2023-03-08T14:39:27;4.90;;;2.50;;
58990;SDS011;44781;53.444;14.476;2023-03-08T14:41:56;6.70;;;2.40;;
58990;SDS011;44781;53.444;14.476;2023-03-08T14:44:27;5.00;;;2.40;;
58990;SDS011;44781;53.444;14.476;2023-03-08T14:49:33;5.00;;;2.70;;
58990;SDS011;44781;53.444;14.476;2023-03-08T14:52:00;5.90;;;2.50;;
58990;SDS011;44781;53.444;14.476;2023-03-08T14:54:33;5.60;;;2.80;;
58990;SDS011;44781;53.444;14.476;2023-03-08T14:57:15;4.60;;;2.40;;
58990;SDS011;44781;53.444;14.476;2023-03-08T14:59:48;5.00;;;2.40;;
58990;SDS011;44781;53.444;14.476;2023-03-08T15:02:17;7.20;;;2.60;;
58990;SDS011;44781;53.444;14.476;2023-03-08T15:04:45;5.90;;;2.70;;
58990;SDS011;44781;53.444;14.476;2023-03-08T15:07:17;5.80;;;2.70;;
58990;SDS011;44781;53.444;14.476;2023-03-08T15:09:49;7.40;;;3.20;;
58990;SDS011;44781;53.444;14.476;2023-03-08T15:12:17;5.90;;;3.00;;
58990;SDS011;44781;53.444;14.476;2023-03-08T15:14:45;6.30;;;3.20;;
58990;SDS011;44781;53.444;14.476;2023-03-08T15:17:13;6.00;;;2.80;;
58990;SDS011;44781;53.444;14.476;2023-03-08T15:19:40;6.00;;;2.60;;
58990;SDS011;44781;53.444;14.476;2023-03-08T15:22:09;6.70;;;3.00;;
58990;SDS011;44781;53.444;14.476;2023-03-08T15:24:39;5.80;;;2.60;;
58990;SDS011;44781;53.444;14.476;2023-03-08T15:27:13;5.40;;;2.70;;
58990;SDS011;44781;53.444;14.476;2023-03-08T15:29:42;7.70;;;3.10;;
58990;SDS011;44781;53.444;14.476;2023-03-08T15:32:10;5.90;;;2.90;;
58990;SDS011;44781;53.444;14.476;2023-03-08T15:34:38;7.10;;;3.50;;
58990;SDS011;44781;53.444;14.476;2023-03-08T15:37:07;5.70;;;3.00;;
58990;SDS011;44781;53.444;14.476;2023-03-08T15:39:39;6.30;;;2.90;;
58990;SDS011;44781;53.444;14.476;2023-03-08T15:42:06;7.00;;;2.90;;
58990;SDS011;44781;53.444;14.476;2023-03-08T15:44:34;5.90;;;2.90;;
58990;SDS011;44781;53.444;14.476;2023-03-08T15:47:01;7.10;;;2.90;;
58990;SDS011;44781;53.444;14.476;2023-03-08T15:49:28;6.60;;;3.40;;
58990;SDS011;44781;53.444;14.476;2023-03-08T15:51:55;6.80;;;3.20;;
58990;SDS011;44781;53.444;14.476;2023-03-08T15:54:26;4.80;;;2.90;;
58990;SDS011;44781;53.444;14.476;2023-03-08T15:56:53;5.70;;;3.00;;
58990;SDS011;44781;53.444;14.476;2023-03-08T15:59:23;5.40;;;2.80;;
58990;SDS011;44781;53.444;14.476;2023-03-08T16:01:53;5.70;;;2.50;;
58990;SDS011;44781;53.444;14.476;2023-03-08T16:04:20;7.50;;;3.50;;
58990;SDS011;44781;53.444;14.476;2023-03-08T16:07:03;6.50;;;3.50;;
58990;SDS011;44781;53.444;14.476;2023-03-08T16:09:36;7.80;;;3.40;;
58990;SDS011;44781;53.444;14.476;2023-03-08T16:12:04;5.90;;;3.10;;
58990;SDS011;44781;53.444;14.476;2023-03-08T16:14:37;6.10;;;3.50;;
58990;SDS011;44781;53.444;14.476;2023-03-08T16:17:05;6.50;;;3.30;;
58990;SDS011;44781;53.444;14.476;2023-03-08T16:19:33;6.50;;;3.30;;
58990;SDS011;44781;53.444;14.476;2023-03-08T16:22:01;5.80;;;3.30;;
58990;SDS011;44781;53.444;14.476;2023-03-08T16:24:34;6.30;;;3.20;;
58990;SDS011;44781;53.444;14.476;2023-03-08T16:27:02;7.80;;;3.70;;
58990;SDS011;44781;53.444;14.476;2023-03-08T16:29:31;7.50;;;3.40;;
58990;SDS011;44781;53.444;14.476;2023-03-08T16:32:11;6.10;;;3.50;;
58990;SDS011;44781;53.444;14.476;2023-03-08T16:34:41;6.00;;;3.70;;
58990;SDS011;44781;53.444;14.476;2023-03-08T16:37:22;7.10;;;3.70;;
58990;SDS011;44781;53.444;14.476;2023-03-08T16:40:02;8.90;;;4.50;;
58990;SDS011;44781;53.444;14.476;2023-03-08T16:42:32;12.30;;;5.40;;
58990;SDS011;44781;53.444;14.476;2023-03-08T16:45:03;11.40;;;6.10;;
58990;SDS011;44781;53.444;14.476;2023-03-08T16:47:40;12.00;;;7.20;;
58990;SDS011;44781;53.444;14.476;2023-03-08T16:50:10;11.30;;;6.90;;
58990;SDS011;44781;53.444;14.476;2023-03-08T16:52:39;12.20;;;6.70;;
58990;SDS011;44781;53.444;14.476;2023-03-08T16:55:12;11.00;;;6.30;;
58990;SDS011;44781;53.444;14.476;2023-03-08T16:57:39;9.00;;;5.80;;
58990;SDS011;44781;53.444;14.476;2023-03-08T17:00:13;10.30;;;6.40;;
58990;SDS011;44781;53.444;14.476;2023-03-08T17:02:42;13.90;;;8.60;;